Ville De Bordeaux — FZCE — position and weather

sailwx.info

Track history (hours):
 
Tides and Currents Weather Stations Pressure Air Temp Water Temp Dewpoint Dewpoint Depression Visibility Wind Speed Wind Dir Waves Ship Positions

Ville De Bordeaux

Last reported at 2018-May-27 05:31 UTC. Time now 2018-May-27 08:05 UTC.
Position N 49°59' W 003°00'.

Length 150 m; beam 24 m.

Type: Ship. MMSI: 228084000.

Date/timePositionNaut miles runAvg speedWind from/ knotsBaromVisibWave heightAir tempDewpointWater temp
2018-May-27 05:31N 49°59' W 003°00'0 8.2
2018-May-27 05:30N 49°59' W 003°00'5 8.6
2018-May-27 04:55N 50°00' W 002°52'13110.6
2018-May-26 16:30N 50°36' E 000°25'611.3
2018-May-26 16:00N 50°38' E 000°33'611.8
2018-May-26 15:30N 50°41' E 000°41'612.3
2018-May-26 15:00N 50°45' E 000°49'612.4
2018-May-26 14:30N 50°48' E 000°57'612.2
2018-May-26 14:00N 50°52' E 001°04'611.7
2018-May-26 13:30N 50°56' E 001°12'910.9
2018-May-26 12:41N 51°02' E 001°23'410.0
2018-May-26 12:15N 51°04' E 001°28'2 9.3
2018-May-26 12:00N 51°06' E 001°30'4 8.5
2018-May-26 11:30N 51°09' E 001°36'4 8.1
2018-May-26 11:00N 51°11' E 001°41'4 8.1
2018-May-26 10:30N 51°14' E 001°45'4 8.3
2018-May-26 10:00N 51°17' E 001°49'4 8.8
2018-May-26 09:31N 51°21' E 001°53'5 9.2
2018-May-26 09:00N 51°25' E 001°57'610.0
2018-May-26 08:27N 51°29' E 002°03'510.5
2018-May-26 07:58N 51°33' E 002°08'510.9
2018-May-26 07:28N 51°37' E 002°14'511.5
2018-May-26 07:00N 51°41' E 002°19'7816.3
2018-May-26 02:14N 52°42' E 003°37'517.8
2018-May-26 01:59N 52°46' E 003°42'2317.7
2018-May-26 00:39N 53°02' E 004°10'317.8
2018-May-26 00:29N 53°04' E 004°14'917.4
2018-May-25 23:58N 53°10' E 004°26'1017.5
2018-May-25 23:23N 53°19' E 004°33'717.3
2018-May-25 23:01N 53°25' E 004°36'916.7
2018-May-25 22:29N 53°30' E 004°48'917.8
2018-May-25 22:00N 53°33' E 005°02'918.1
2018-May-25 21:30N 53°37' E 005°16'918.0
2018-May-25 21:00N 53°40' E 005°30'918.6
2018-May-25 20:31N 53°43' E 005°44'7717.0
2018-May-25 16:00N 54°01' E 007°51'1415.9
2018-May-25 15:06N 54°00' E 008°15'315.2
2018-May-25 14:56N 53°60' E 008°20'1020.0
2018-May-25 14:26N 53°57' E 008°37'818.0
2018-May-25 14:00N 53°52' E 008°45'815.6
2018-May-25 13:31N 53°51' E 008°58'815.2
2018-May-25 13:00N 53°53' E 009°10'713.3
2018-May-25 12:30N 53°50' E 009°21'714.4
2018-May-25 12:00N 53°44' E 009°27'612.1
2018-May-25 11:30N 53°39' E 009°31'611.7
2018-May-25 11:00N 53°35' E 009°38'5 9.8
2018-May-25 10:30N 53°34' E 009°46'2 4.4
2018-May-25 10:00N 53°33' E 009°50'0 0.0
2018-May-25 09:28N 53°33' E 009°50'0 0.0
2018-May-25 08:58N 53°33' E 009°50'0 0.0
2018-May-25 08:28N 53°33' E 009°50'0 0.0
2018-May-25 07:58N 53°33' E 009°50'0 0.0
2018-May-25 07:28N 53°33' E 009°50'0 0.0
2018-May-25 06:58N 53°33' E 009°50'0 0.0
2018-May-25 06:28N 53°33' E 009°50'0 0.0
2018-May-25 05:58N 53°33' E 009°50'0 0.0
2018-May-25 05:28N 53°33' E 009°50'0 0.0
2018-May-25 05:00N 53°33' E 009°50'3 5.4
2018-May-25 04:30N 53°34' E 009°46'5 9.7
2018-May-25 04:00N 53°35' E 009°38'611.3
2018-May-25 03:30N 53°39' E 009°31'510.3
2018-May-25 03:00N 53°43' E 009°28'510.2
2018-May-25 02:30N 53°48' E 009°23'611.6
2018-May-25 02:00N 53°52' E 009°16'510.5
2018-May-25 01:30N 53°53' E 009°07'611.2
2018-May-25 00:59N 53°51' E 008°58'611.9
2018-May-25 00:30N 53°50' E 008°48'510.1
2018-May-24 23:59N 53°54' E 008°42'10015.8
2018-May-24 17:39N 53°40' E 005°54'216.9
2018-May-24 17:31N 53°39' E 005°50'816.8
2018-May-24 17:00N 53°37' E 005°37'916.8
2018-May-24 16:30N 53°34' E 005°23'816.6
2018-May-24 16:01N 53°31' E 005°10'816.9
2018-May-24 15:30N 53°28' E 004°57'917.2
2018-May-24 15:00N 53°24' E 004°44'1416.7
2018-May-24 14:09N 53°11' E 004°34'817.1
2018-May-24 13:43N 53°05' E 004°28'417.2
2018-May-24 13:30N 53°02' E 004°25'5712.4
2018-May-24 08:54N 52°20' E 003°21'4210.7
2018-May-24 05:00N 51°47' E 002°39'5 9.6
2018-May-24 04:30N 51°43' E 002°34'5 9.5
2018-May-24 04:00N 51°40' E 002°30'5 9.5
2018-May-24 03:28N 51°36' E 002°25'5 9.5
2018-May-24 02:59N 51°32' E 002°20'5 9.6
2018-May-24 02:30N 51°28' E 002°15'510.1
2018-May-24 02:01N 51°24' E 002°12'510.4
2018-May-24 01:30N 51°19' E 002°08'510.3
2018-May-24 01:00N 51°15' E 002°04'510.5
2018-May-24 00:30N 51°12' E 001°57'510.7
2018-May-24 00:00N 51°08' E 001°51'510.7
2018-May-23 23:30N 51°04' E 001°45'511.0
2018-May-23 23:00N 51°00' E 001°39'7010.8
2018-May-23 16:29N 50°20' E 000°08'812.3
2018-May-23 15:48N 50°18' W 000°05'3612.7
2018-May-23 12:57N 50°08' W 000°59'612.0
2018-May-23 12:29N 50°07' W 001°08'611.5
2018-May-23 12:00N 50°06' W 001°16'611.0
2018-May-23 11:30N 50°04' W 001°24'510.4
2018-May-23 11:00N 50°03' W 001°32'6 9.6
2018-May-23 10:24N 50°01' W 001°41'4 9.1
2018-May-23 09:58N 50°00' W 001°47'4 8.6
2018-May-23 09:30N 49°59' W 001°53'4 8.3
2018-May-23 09:00N 49°58' W 001°59'23 8.3
2018-May-23 06:14N 49°53' W 002°34'5 9.2
2018-May-23 05:40N 49°52' W 002°42'3 9.5
2018-May-23 05:23N 49°52' W 002°46'4 9.8
2018-May-23 05:00N 49°50' W 002°51'1110.2
2018-May-23 03:58N 49°45' W 003°06'510.4
2018-May-23 03:30N 49°43' W 003°12'510.5
2018-May-23 03:00N 49°40' W 003°19'1110.5
2018-May-23 02:00N 49°34' W 003°33'610.5
2018-May-23 01:27N 49°31' W 003°40'7612.0
2018-May-22 19:04N 48°51' W 005°20'117.3
2018-May-22 19:00N 48°51' W 005°21'917.1
2018-May-22 18:30N 48°46' W 005°32'5714.4
2018-May-22 14:33N 47°55' W 004°55'117.5
2018-May-22 14:30N 47°54' W 004°54'3017.8
2018-May-22 12:48N 47°38' W 004°16'917.9
2018-May-22 12:17N 47°34' W 004°04'517.7
2018-May-22 12:00N 47°32' W 003°57'917.6
2018-May-22 11:30N 47°26' W 003°48'1017.4
2018-May-22 10:58N 47°21' W 003°36'817.2
2018-May-22 10:30N 47°16' W 003°26'916.8
2018-May-22 09:59N 47°13' W 003°14'817.3
2018-May-22 09:30N 47°11' W 003°02'1518.0
2018-May-22 08:42N 47°08' W 002°42'517.9
2018-May-22 08:25N 47°07' W 002°34'717.5
2018-May-22 08:00N 47°06' W 002°24'714.9
2018-May-22 07:30N 47°12' W 002°17'714.6
2018-May-22 07:00N 47°17' W 002°10'0 0.2
2018-May-22 06:30N 47°17' W 002°10'0 0.0
2018-May-22 05:58N 47°17' W 002°10'0 0.0
2018-May-22 05:28N 47°17' W 002°10'0 0.0
2018-May-22 04:52N 47°17' W 002°10'0 0.0
2018-May-22 04:28N 47°17' W 002°10'0 0.0
2018-May-22 03:55N 47°17' W 002°10'0 0.0
2018-May-22 03:25N 47°17' W 002°10'0 0.0
2018-May-22 02:58N 47°17' W 002°10'0 0.0
2018-May-22 02:25N 47°17' W 002°10'0 0.0
2018-May-22 01:58N 47°17' W 002°10'0 0.0
2018-May-22 01:28N 47°17' W 002°10'0 0.0
2018-May-22 00:49N 47°17' W 002°10'0 0.0
2018-May-22 00:25N 47°17' W 002°10'0 0.0
2018-May-21 23:52N 47°17' W 002°10'0 0.0
2018-May-21 23:25N 47°17' W 002°10'0 0.0
2018-May-21 22:55N 47°17' W 002°10'0 0.0
2018-May-21 22:19N 47°17' W 002°10'0 0.0
2018-May-21 21:55N 47°17' W 002°10'0 0.0
2018-May-21 21:19N 47°17' W 002°10'0 0.0
2018-May-21 20:58N 47°17' W 002°10'0 0.0
2018-May-21 20:25N 47°17' W 002°10'0 0.0
2018-May-21 19:49N 47°17' W 002°10'0 0.0
2018-May-21 19:25N 47°17' W 002°10'0 0.0
2018-May-21 18:55N 47°17' W 002°10'0 0.0
2018-May-21 18:25N 47°17' W 002°10'0 0.0
2018-May-21 17:58N 47°17' W 002°10'0 0.0
2018-May-21 17:25N 47°17' W 002°10'0 0.0
2018-May-21 16:58N 47°17' W 002°10'0 0.0
2018-May-21 16:28N 47°17' W 002°10'0 0.0
2018-May-21 15:55N 47°17' W 002°10'0 0.0
2018-May-21 15:07N 47°17' W 002°10'0 0.0
2018-May-21 14:01N 47°17' W 002°10'0 0.0
2018-May-21 12:31N 47°17' W 002°10'0 0.0
2018-May-21 12:28N 47°17' W 002°10'0 0.0
2018-May-21 11:58N 47°17' W 002°10'0 0.0
2018-May-21 11:28N 47°17' W 002°10'0 0.0
2018-May-21 10:55N 47°17' W 002°10'0 0.0
2018-May-21 10:25N 47°17' W 002°10'0 0.0
2018-May-21 09:55N 47°17' W 002°10'0 0.0
2018-May-21 09:28N 47°17' W 002°10'0 0.0
2018-May-21 08:58N 47°17' W 002°10'0 0.0
2018-May-21 06:49N 47°17' W 002°10'0 0.0
2018-May-21 06:28N 47°17' W 002°10'0 0.0
2018-May-21 05:55N 47°17' W 002°10'0 0.0
2018-May-21 05:28N 47°17' W 002°10'0 0.0
2018-May-21 04:55N 47°17' W 002°10'0 0.0
2018-May-21 03:47N 47°17' W 002°10'0 0.2
2018-May-21 03:30N 47°17' W 002°10'5 9.8
2018-May-21 03:00N 47°14' W 002°15'815.2
2018-May-21 02:30N 47°08' W 002°21'815.8
2018-May-21 02:00N 47°03' W 002°30'815.8
2018-May-21 01:30N 46°60' W 002°41'816.2
2018-May-21 01:00N 47°03' W 002°52'816.4
2018-May-21 00:30N 47°06' W 003°03'816.3
2018-May-21 00:00N 47°11' W 003°13'816.2
2018-May-20 23:31N 47°16' W 003°22'816.3
2018-May-20 23:00N 47°20' W 003°32'816.2
2018-May-20 22:30N 47°25' W 003°42'816.3
2018-May-20 22:00N 47°29' W 003°52'4216.4
2018-May-20 19:25N 47°48' W 004°49'817.5
2018-May-20 18:58N 47°53' W 004°59'816.8
2018-May-20 18:30N 47°56' W 005°09'816.4
2018-May-20 18:00N 48°00' W 005°19'816.6
2018-May-20 17:30N 48°05' W 005°30'816.6
2018-May-20 17:00N 48°09' W 005°41'816.5
2018-May-20 16:30N 48°14' W 005°51'816.4
2018-May-20 16:00N 48°19' W 006°00'815.5
2018-May-20 15:30N 48°25' W 006°08'815.2
2018-May-20 15:00N 48°32' W 006°04'1616.8
2018-May-20 14:02N 48°46' W 005°52'117.3
2018-May-20 14:00N 48°47' W 005°51'917.5
2018-May-20 13:30N 48°54' W 005°44'918.6
2018-May-20 13:00N 48°59' W 005°32'918.5
2018-May-20 12:30N 49°03' W 005°19'918.3
2018-May-20 12:00N 49°08' W 005°07'7718.9
2018-May-20 07:55N 49°48' W 003°26'1714.7
2018-May-20 06:45N 49°57' W 003°03'313.9
2018-May-20 06:30N 49°58' W 002°58'914.6
2018-May-20 05:52N 50°01' W 002°45'3016.0
2018-May-20 04:00N 50°10' W 002°00'916.3
2018-May-20 03:29N 50°12' W 001°47'1215.3
2018-May-20 02:40N 50°15' W 001°29'214.2
2018-May-20 02:30N 50°16' W 001°25'913.7
2018-May-20 01:51N 50°18' W 001°11'10 9.8
2018-May-20 00:51N 50°20' W 000°56'8 8.0
2018-May-19 23:51N 50°22' W 000°44'14 8.1
2018-May-19 22:08N 50°25' W 000°23'1 9.2
2018-May-19 21:58N 50°25' W 000°21'5 9.7
2018-May-19 21:28N 50°27' W 000°13'510.6
2018-May-19 20:58N 50°28' W 000°05'511.2
2018-May-19 20:30N 50°30' E 000°02'611.9
2018-May-19 20:00N 50°32' E 000°11'612.1
2018-May-19 19:28N 50°34' E 000°21'612.5
2018-May-19 19:00N 50°36' E 000°29'612.3
2018-May-19 18:29N 50°39' E 000°38'612.0
2018-May-19 17:59N 50°43' E 000°46'511.5
2018-May-19 17:30N 50°46' E 000°53'24 9.4
2018-May-19 14:59N 51°01' E 001°22'4 7.8
2018-May-19 14:26N 51°04' E 001°27'4 8.7
2018-May-19 14:00N 51°06' E 001°31'5 9.3
2018-May-19 13:27N 51°10' E 001°37'4 9.8
2018-May-19 13:00N 51°12' E 001°43'510.4
2018-May-19 12:30N 51°17' E 001°47'816.0
2018-May-19 12:01N 51°24' E 001°54'917.8
2018-May-19 11:30N 51°31' E 002°03'4813.1
2018-May-19 07:49N 52°07' E 002°55'22913.8
2018-May-18 15:10N 53°59' E 008°28'619.1
2018-May-18 14:51N 53°57' E 008°38'616.8
2018-May-18 14:30N 53°52' E 008°43'612.4
2018-May-18 14:00N 53°51' E 008°53'713.3
2018-May-18 13:30N 53°52' E 009°04'510.1
2018-May-18 13:00N 53°53' E 009°12'4 7.9
2018-May-18 12:30N 53°51' E 009°19'611.7
2018-May-18 12:00N 53°46' E 009°24'611.6
2018-May-18 11:30N 53°42' E 009°30'713.1
2018-May-18 11:00N 53°36' E 009°35'611.9
2018-May-18 10:30N 53°34' E 009°44'3 6.8
2018-May-18 10:00N 53°33' E 009°50'0 0.0
2018-May-18 09:28N 53°33' E 009°50'0 0.0
2018-May-18 08:58N 53°33' E 009°50'0 0.0
2018-May-18 08:28N 53°33' E 009°50'0 0.0
2018-May-18 07:59N 53°33' E 009°50'0 0.0
2018-May-18 07:28N 53°33' E 009°50'0 0.0
2018-May-18 06:58N 53°33' E 009°50'0 0.0
2018-May-18 06:25N 53°33' E 009°50'0 0.0
2018-May-18 05:58N 53°33' E 009°50'0 0.0
2018-May-18 05:28N 53°33' E 009°50'0 0.0
2018-May-18 05:00N 53°33' E 009°50'1 2.8
2018-May-18 04:30N 53°33' E 009°48'5 9.4
2018-May-18 04:01N 53°34' E 009°40'612.5
2018-May-18 03:30N 53°38' E 009°32'713.8
2018-May-18 03:00N 53°44' E 009°26'815.7
2018-May-18 02:30N 53°51' E 009°19'611.5
2018-May-18 02:00N 53°53' E 009°10'4 8.3
2018-May-18 01:30N 53°52' E 009°03'714.6
2018-May-18 01:00N 53°50' E 008°51'5 8.5
2018-May-18 00:27N 53°52' E 008°43'0 0.0
2018-May-17 23:57N 53°52' E 008°43'0 0.0
2018-May-17 23:21N 53°52' E 008°43'0 0.0
2018-May-17 23:00N 53°52' E 008°43'0 0.0
2018-May-17 22:30N 53°52' E 008°43'0 0.0
2018-May-17 21:54N 53°52' E 008°43'0 0.0
2018-May-17 21:30N 53°52' E 008°43'0 0.0
2018-May-17 20:57N 53°52' E 008°43'0 0.0
2018-May-17 20:27N 53°52' E 008°43'0 0.0
2018-May-17 19:48N 53°52' E 008°43'0 0.0
2018-May-17 19:30N 53°52' E 008°43'0 0.0
2018-May-17 19:00N 53°52' E 008°43'0 0.0
2018-May-17 18:30N 53°52' E 008°43'0 0.0
2018-May-17 18:00N 53°52' E 008°43'0 0.0
2018-May-17 17:30N 53°52' E 008°43'0 0.0
2018-May-17 17:00N 53°52' E 008°43'0 0.1
2018-May-17 16:30N 53°52' E 008°44'2 3.4
2018-May-17 16:00N 53°53' E 008°42'13215.9
2018-May-17 07:40N 53°29' E 005°03'318.1
2018-May-17 07:30N 53°28' E 004°58'  
Track history (hours):
 
Tides and Currents Weather Stations Pressure Air Temp Water Temp Dewpoint Dewpoint Depression Visibility Wind Speed Wind Dir Waves Ship Positions

Ville De Bordeaux

Last reported at 2018-May-27 05:31 UTC. Time now 2018-May-27 08:05 UTC.
Position N 49°59' W 003°00'.

Length 150 m; beam 24 m.

Type: Ship. MMSI: 228084000.

Date/timePositionNaut miles runAvg speedWind from/ knotsBaromVisibWave heightAir tempDewpointWater temp
2018-May-27 05:31N 49°59' W 003°00'0 8.2
2018-May-27 05:30N 49°59' W 003°00'5 8.6
2018-May-27 04:55N 50°00' W 002°52'13110.6
2018-May-26 16:30N 50°36' E 000°25'611.3
2018-May-26 16:00N 50°38' E 000°33'611.8
2018-May-26 15:30N 50°41' E 000°41'612.3
2018-May-26 15:00N 50°45' E 000°49'612.4
2018-May-26 14:30N 50°48' E 000°57'612.2
2018-May-26 14:00N 50°52' E 001°04'611.7
2018-May-26 13:30N 50°56' E 001°12'910.9
2018-May-26 12:41N 51°02' E 001°23'410.0
2018-May-26 12:15N 51°04' E 001°28'2 9.3
2018-May-26 12:00N 51°06' E 001°30'4 8.5
2018-May-26 11:30N 51°09' E 001°36'4 8.1
2018-May-26 11:00N 51°11' E 001°41'4 8.1
2018-May-26 10:30N 51°14' E 001°45'4 8.3
2018-May-26 10:00N 51°17' E 001°49'4 8.8
2018-May-26 09:31N 51°21' E 001°53'5 9.2
2018-May-26 09:00N 51°25' E 001°57'610.0
2018-May-26 08:27N 51°29' E 002°03'510.5
2018-May-26 07:58N 51°33' E 002°08'510.9
2018-May-26 07:28N 51°37' E 002°14'511.5
2018-May-26 07:00N 51°41' E 002°19'7816.3
2018-May-26 02:14N 52°42' E 003°37'517.8
2018-May-26 01:59N 52°46' E 003°42'2317.7
2018-May-26 00:39N 53°02' E 004°10'317.8
2018-May-26 00:29N 53°04' E 004°14'917.4
2018-May-25 23:58N 53°10' E 004°26'1017.5
2018-May-25 23:23N 53°19' E 004°33'717.3
2018-May-25 23:01N 53°25' E 004°36'916.7
2018-May-25 22:29N 53°30' E 004°48'917.8
2018-May-25 22:00N 53°33' E 005°02'918.1
2018-May-25 21:30N 53°37' E 005°16'918.0
2018-May-25 21:00N 53°40' E 005°30'918.6
2018-May-25 20:31N 53°43' E 005°44'7717.0
2018-May-25 16:00N 54°01' E 007°51'1415.9
2018-May-25 15:06N 54°00' E 008°15'315.2
2018-May-25 14:56N 53°60' E 008°20'1020.0
2018-May-25 14:26N 53°57' E 008°37'818.0
2018-May-25 14:00N 53°52' E 008°45'815.6
2018-May-25 13:31N 53°51' E 008°58'815.2
2018-May-25 13:00N 53°53' E 009°10'713.3
2018-May-25 12:30N 53°50' E 009°21'714.4
2018-May-25 12:00N 53°44' E 009°27'612.1
2018-May-25 11:30N 53°39' E 009°31'611.7
2018-May-25 11:00N 53°35' E 009°38'5 9.8
2018-May-25 10:30N 53°34' E 009°46'2 4.4
2018-May-25 10:00N 53°33' E 009°50'0 0.0
2018-May-25 09:28N 53°33' E 009°50'0 0.0
2018-May-25 08:58N 53°33' E 009°50'0 0.0
2018-May-25 08:28N 53°33' E 009°50'0 0.0
2018-May-25 07:58N 53°33' E 009°50'0 0.0
2018-May-25 07:28N 53°33' E 009°50'0 0.0
2018-May-25 06:58N 53°33' E 009°50'0 0.0
2018-May-25 06:28N 53°33' E 009°50'0 0.0
2018-May-25 05:58N 53°33' E 009°50'0 0.0
2018-May-25 05:28N 53°33' E 009°50'0 0.0
2018-May-25 05:00N 53°33' E 009°50'3 5.4
2018-May-25 04:30N 53°34' E 009°46'5 9.7
2018-May-25 04:00N 53°35' E 009°38'611.3
2018-May-25 03:30N 53°39' E 009°31'510.3
2018-May-25 03:00N 53°43' E 009°28'510.2
2018-May-25 02:30N 53°48' E 009°23'611.6
2018-May-25 02:00N 53°52' E 009°16'510.5
2018-May-25 01:30N 53°53' E 009°07'611.2
2018-May-25 00:59N 53°51' E 008°58'611.9
2018-May-25 00:30N 53°50' E 008°48'510.1
2018-May-24 23:59N 53°54' E 008°42'10015.8
2018-May-24 17:39N 53°40' E 005°54'216.9
2018-May-24 17:31N 53°39' E 005°50'816.8
2018-May-24 17:00N 53°37' E 005°37'916.8
2018-May-24 16:30N 53°34' E 005°23'816.6
2018-May-24 16:01N 53°31' E 005°10'816.9
2018-May-24 15:30N 53°28' E 004°57'917.2
2018-May-24 15:00N 53°24' E 004°44'1416.7
2018-May-24 14:09N 53°11' E 004°34'817.1
2018-May-24 13:43N 53°05' E 004°28'417.2
2018-May-24 13:30N 53°02' E 004°25'5712.4
2018-May-24 08:54N 52°20' E 003°21'4210.7
2018-May-24 05:00N 51°47' E 002°39'5 9.6
2018-May-24 04:30N 51°43' E 002°34'5 9.5
2018-May-24 04:00N 51°40' E 002°30'5 9.5
2018-May-24 03:28N 51°36' E 002°25'5 9.5
2018-May-24 02:59N 51°32' E 002°20'5 9.6
2018-May-24 02:30N 51°28' E 002°15'510.1
2018-May-24 02:01N 51°24' E 002°12'510.4
2018-May-24 01:30N 51°19' E 002°08'510.3
2018-May-24 01:00N 51°15' E 002°04'510.5
2018-May-24 00:30N 51°12' E 001°57'510.7
2018-May-24 00:00N 51°08' E 001°51'510.7
2018-May-23 23:30N 51°04' E 001°45'511.0
2018-May-23 23:00N 51°00' E 001°39'7010.8
2018-May-23 16:29N 50°20' E 000°08'812.3
2018-May-23 15:48N 50°18' W 000°05'3612.7
2018-May-23 12:57N 50°08' W 000°59'612.0
2018-May-23 12:29N 50°07' W 001°08'611.5
2018-May-23 12:00N 50°06' W 001°16'611.0
2018-May-23 11:30N 50°04' W 001°24'510.4
2018-May-23 11:00N 50°03' W 001°32'6 9.6
2018-May-23 10:24N 50°01' W 001°41'4 9.1
2018-May-23 09:58N 50°00' W 001°47'4 8.6
2018-May-23 09:30N 49°59' W 001°53'4 8.3
2018-May-23 09:00N 49°58' W 001°59'23 8.3
2018-May-23 06:14N 49°53' W 002°34'5 9.2
2018-May-23 05:40N 49°52' W 002°42'3 9.5
2018-May-23 05:23N 49°52' W 002°46'4 9.8
2018-May-23 05:00N 49°50' W 002°51'1110.2
2018-May-23 03:58N 49°45' W 003°06'510.4
2018-May-23 03:30N 49°43' W 003°12'510.5
2018-May-23 03:00N 49°40' W 003°19'1110.5
2018-May-23 02:00N 49°34' W 003°33'610.5
2018-May-23 01:27N 49°31' W 003°40'7612.0
2018-May-22 19:04N 48°51' W 005°20'117.3
2018-May-22 19:00N 48°51' W 005°21'917.1
2018-May-22 18:30N 48°46' W 005°32'5714.4
2018-May-22 14:33N 47°55' W 004°55'117.5
2018-May-22 14:30N 47°54' W 004°54'3017.8
2018-May-22 12:48N 47°38' W 004°16'917.9
2018-May-22 12:17N 47°34' W 004°04'517.7
2018-May-22 12:00N 47°32' W 003°57'917.6
2018-May-22 11:30N 47°26' W 003°48'1017.4
2018-May-22 10:58N 47°21' W 003°36'817.2
2018-May-22 10:30N 47°16' W 003°26'916.8
2018-May-22 09:59N 47°13' W 003°14'817.3
2018-May-22 09:30N 47°11' W 003°02'1518.0
2018-May-22 08:42N 47°08' W 002°42'517.9
2018-May-22 08:25N 47°07' W 002°34'717.5
2018-May-22 08:00N 47°06' W 002°24'714.9
2018-May-22 07:30N 47°12' W 002°17'714.6
2018-May-22 07:00N 47°17' W 002°10'0 0.2
2018-May-22 06:30N 47°17' W 002°10'0 0.0
2018-May-22 05:58N 47°17' W 002°10'0 0.0
2018-May-22 05:28N 47°17' W 002°10'0 0.0
2018-May-22 04:52N 47°17' W 002°10'0 0.0
2018-May-22 04:28N 47°17' W 002°10'0 0.0
2018-May-22 03:55N 47°17' W 002°10'0 0.0
2018-May-22 03:25N 47°17' W 002°10'0 0.0
2018-May-22 02:58N 47°17' W 002°10'0 0.0
2018-May-22 02:25N 47°17' W 002°10'0 0.0
2018-May-22 01:58N 47°17' W 002°10'0 0.0
2018-May-22 01:28N 47°17' W 002°10'0 0.0
2018-May-22 00:49N 47°17' W 002°10'0 0.0
2018-May-22 00:25N 47°17' W 002°10'0 0.0
2018-May-21 23:52N 47°17' W 002°10'0 0.0
2018-May-21 23:25N 47°17' W 002°10'0 0.0
2018-May-21 22:55N 47°17' W 002°10'0 0.0
2018-May-21 22:19N 47°17' W 002°10'0 0.0
2018-May-21 21:55N 47°17' W 002°10'0 0.0
2018-May-21 21:19N 47°17' W 002°10'0 0.0
2018-May-21 20:58N 47°17' W 002°10'0 0.0
2018-May-21 20:25N 47°17' W 002°10'0 0.0
2018-May-21 19:49N 47°17' W 002°10'0 0.0
2018-May-21 19:25N 47°17' W 002°10'0 0.0
2018-May-21 18:55N 47°17' W 002°10'0 0.0
2018-May-21 18:25N 47°17' W 002°10'0 0.0
2018-May-21 17:58N 47°17' W 002°10'0 0.0
2018-May-21 17:25N 47°17' W 002°10'0 0.0
2018-May-21 16:58N 47°17' W 002°10'0 0.0
2018-May-21 16:28N 47°17' W 002°10'0 0.0
2018-May-21 15:55N 47°17' W 002°10'0 0.0
2018-May-21 15:07N 47°17' W 002°10'0 0.0
2018-May-21 14:01N 47°17' W 002°10'0 0.0
2018-May-21 12:31N 47°17' W 002°10'0 0.0
2018-May-21 12:28N 47°17' W 002°10'0 0.0
2018-May-21 11:58N 47°17' W 002°10'0 0.0
2018-May-21 11:28N 47°17' W 002°10'0 0.0
2018-May-21 10:55N 47°17' W 002°10'0 0.0
2018-May-21 10:25N 47°17' W 002°10'0 0.0
2018-May-21 09:55N 47°17' W 002°10'0 0.0
2018-May-21 09:28N 47°17' W 002°10'0 0.0
2018-May-21 08:58N 47°17' W 002°10'0 0.0
2018-May-21 06:49N 47°17' W 002°10'0 0.0
2018-May-21 06:28N 47°17' W 002°10'0 0.0
2018-May-21 05:55N 47°17' W 002°10'0 0.0
2018-May-21 05:28N 47°17' W 002°10'0 0.0
2018-May-21 04:55N 47°17' W 002°10'0 0.0
2018-May-21 03:47N 47°17' W 002°10'0 0.2
2018-May-21 03:30N 47°17' W 002°10'5 9.8
2018-May-21 03:00N 47°14' W 002°15'815.2
2018-May-21 02:30N 47°08' W 002°21'815.8
2018-May-21 02:00N 47°03' W 002°30'815.8
2018-May-21 01:30N 46°60' W 002°41'816.2
2018-May-21 01:00N 47°03' W 002°52'816.4
2018-May-21 00:30N 47°06' W 003°03'816.3
2018-May-21 00:00N 47°11' W 003°13'816.2
2018-May-20 23:31N 47°16' W 003°22'816.3
2018-May-20 23:00N 47°20' W 003°32'816.2
2018-May-20 22:30N 47°25' W 003°42'816.3
2018-May-20 22:00N 47°29' W 003°52'4216.4
2018-May-20 19:25N 47°48' W 004°49'817.5
2018-May-20 18:58N 47°53' W 004°59'816.8
2018-May-20 18:30N 47°56' W 005°09'816.4
2018-May-20 18:00N 48°00' W 005°19'816.6
2018-May-20 17:30N 48°05' W 005°30'816.6
2018-May-20 17:00N 48°09' W 005°41'816.5
2018-May-20 16:30N 48°14' W 005°51'816.4
2018-May-20 16:00N 48°19' W 006°00'815.5
2018-May-20 15:30N 48°25' W 006°08'815.2
2018-May-20 15:00N 48°32' W 006°04'1616.8
2018-May-20 14:02N 48°46' W 005°52'117.3
2018-May-20 14:00N 48°47' W 005°51'917.5
2018-May-20 13:30N 48°54' W 005°44'918.6
2018-May-20 13:00N 48°59' W 005°32'918.5
2018-May-20 12:30N 49°03' W 005°19'918.3
2018-May-20 12:00N 49°08' W 005°07'7718.9
2018-May-20 07:55N 49°48' W 003°26'1714.7
2018-May-20 06:45N 49°57' W 003°03'313.9
2018-May-20 06:30N 49°58' W 002°58'914.6
2018-May-20 05:52N 50°01' W 002°45'3016.0
2018-May-20 04:00N 50°10' W 002°00'916.3
2018-May-20 03:29N 50°12' W 001°47'1215.3
2018-May-20 02:40N 50°15' W 001°29'214.2
2018-May-20 02:30N 50°16' W 001°25'913.7
2018-May-20 01:51N 50°18' W 001°11'10 9.8
2018-May-20 00:51N 50°20' W 000°56'8 8.0
2018-May-19 23:51N 50°22' W 000°44'14 8.1
2018-May-19 22:08N 50°25' W 000°23'1 9.2
2018-May-19 21:58N 50°25' W 000°21'5 9.7
2018-May-19 21:28N 50°27' W 000°13'510.6
2018-May-19 20:58N 50°28' W 000°05'511.2
2018-May-19 20:30N 50°30' E 000°02'611.9
2018-May-19 20:00N 50°32' E 000°11'612.1
2018-May-19 19:28N 50°34' E 000°21'612.5
2018-May-19 19:00N 50°36' E 000°29'612.3
2018-May-19 18:29N 50°39' E 000°38'612.0
2018-May-19 17:59N 50°43' E 000°46'511.5
2018-May-19 17:30N 50°46' E 000°53'24 9.4
2018-May-19 14:59N 51°01' E 001°22'4 7.8
2018-May-19 14:26N 51°04' E 001°27'4 8.7
2018-May-19 14:00N 51°06' E 001°31'5 9.3
2018-May-19 13:27N 51°10' E 001°37'4 9.8
2018-May-19 13:00N 51°12' E 001°43'510.4
2018-May-19 12:30N 51°17' E 001°47'816.0
2018-May-19 12:01N 51°24' E 001°54'917.8
2018-May-19 11:30N 51°31' E 002°03'4813.1
2018-May-19 07:49N 52°07' E 002°55'22913.8
2018-May-18 15:10N 53°59' E 008°28'619.1
2018-May-18 14:51N 53°57' E 008°38'616.8
2018-May-18 14:30N 53°52' E 008°43'612.4
2018-May-18 14:00N 53°51' E 008°53'713.3
2018-May-18 13:30N 53°52' E 009°04'510.1
2018-May-18 13:00N 53°53' E 009°12'4 7.9
2018-May-18 12:30N 53°51' E 009°19'611.7
2018-May-18 12:00N 53°46' E 009°24'611.6
2018-May-18 11:30N 53°42' E 009°30'713.1
2018-May-18 11:00N 53°36' E 009°35'611.9
2018-May-18 10:30N 53°34' E 009°44'3 6.8
2018-May-18 10:00N 53°33' E 009°50'0 0.0
2018-May-18 09:28N 53°33' E 009°50'0 0.0
2018-May-18 08:58N 53°33' E 009°50'0 0.0
2018-May-18 08:28N 53°33' E 009°50'0 0.0
2018-May-18 07:59N 53°33' E 009°50'0 0.0
2018-May-18 07:28N 53°33' E 009°50'0 0.0
2018-May-18 06:58N 53°33' E 009°50'0 0.0
2018-May-18 06:25N 53°33' E 009°50'0 0.0
2018-May-18 05:58N 53°33' E 009°50'0 0.0
2018-May-18 05:28N 53°33' E 009°50'0 0.0
2018-May-18 05:00N 53°33' E 009°50'1 2.8
2018-May-18 04:30N 53°33' E 009°48'5 9.4
2018-May-18 04:01N 53°34' E 009°40'612.5
2018-May-18 03:30N 53°38' E 009°32'713.8
2018-May-18 03:00N 53°44' E 009°26'815.7
2018-May-18 02:30N 53°51' E 009°19'611.5
2018-May-18 02:00N 53°53' E 009°10'4 8.3
2018-May-18 01:30N 53°52' E 009°03'714.6
2018-May-18 01:00N 53°50' E 008°51'5 8.5
2018-May-18 00:27N 53°52' E 008°43'0 0.0
2018-May-17 23:57N 53°52' E 008°43'0 0.0
2018-May-17 23:21N 53°52' E 008°43'0 0.0
2018-May-17 23:00N 53°52' E 008°43'0 0.0
2018-May-17 22:30N 53°52' E 008°43'0 0.0
2018-May-17 21:54N 53°52' E 008°43'0 0.0
2018-May-17 21:30N 53°52' E 008°43'0 0.0
2018-May-17 20:57N 53°52' E 008°43'0 0.0
2018-May-17 20:27N 53°52' E 008°43'0 0.0
2018-May-17 19:48N 53°52' E 008°43'0 0.0
2018-May-17 19:30N 53°52' E 008°43'0 0.0
2018-May-17 19:00N 53°52' E 008°43'0 0.0
2018-May-17 18:30N 53°52' E 008°43'0 0.0
2018-May-17 18:00N 53°52' E 008°43'0 0.0
2018-May-17 17:30N 53°52' E 008°43'0 0.0
2018-May-17 17:00N 53°52' E 008°43'0 0.1
2018-May-17 16:30N 53°52' E 008°44'2 3.4
2018-May-17 16:00N 53°53' E 008°42'13215.9
2018-May-17 07:40N 53°29' E 005°03'318.1
2018-May-17 07:30N 53°28' E 004°58'  

Dump ship's entire track history